sensor_id;sensor_type;location;lat;lon;timestamp;pressure;altitude;pressure_sealevel;temperature
29701;BMP280;57917;51.380;-0.176;2022-10-16T00:05:45;100299.31;;;13.64
29701;BMP280;57917;51.380;-0.176;2022-10-16T00:11:34;100301.34;;;13.67
29701;BMP280;57917;51.380;-0.176;2022-10-16T00:17:29;100297.19;;;13.53
29701;BMP280;57917;51.380;-0.176;2022-10-16T00:23:18;100291.13;;;13.61
29701;BMP280;57917;51.380;-0.176;2022-10-16T00:29:05;100293.28;;;13.50
29701;BMP280;57917;51.380;-0.176;2022-10-16T00:34:52;100305.28;;;13.48
29701;BMP280;57917;51.380;-0.176;2022-10-16T00:40:42;100313.13;;;13.53
29701;BMP280;57917;51.380;-0.176;2022-10-16T00:46:37;100308.69;;;13.40
29701;BMP280;57917;51.380;-0.176;2022-10-16T00:52:24;100322.34;;;13.47
29701;BMP280;57917;51.380;-0.176;2022-10-16T00:58:11;100313.75;;;13.50
29701;BMP280;57917;51.380;-0.176;2022-10-16T01:03:58;100321.44;;;13.51
29701;BMP280;57917;51.380;-0.176;2022-10-16T01:09:54;100318.00;;;13.51
29701;BMP280;57917;51.380;-0.176;2022-10-16T01:21:38;100334.66;;;13.43
29701;BMP280;57917;51.380;-0.176;2022-10-16T01:27:27;100347.47;;;13.41
29701;BMP280;57917;51.380;-0.176;2022-10-16T01:33:20;100349.25;;;13.45
29701;BMP280;57917;51.380;-0.176;2022-10-16T01:39:09;100350.47;;;13.48
29701;BMP280;57917;51.380;-0.176;2022-10-16T01:44:59;100362.22;;;13.47
29701;BMP280;57917;51.380;-0.176;2022-10-16T01:50:57;100372.94;;;13.55
29701;BMP280;57917;51.380;-0.176;2022-10-16T01:56:46;100390.59;;;13.51
29701;BMP280;57917;51.380;-0.176;2022-10-16T02:02:38;100375.03;;;13.45
29701;BMP280;57917;51.380;-0.176;2022-10-16T02:08:28;100370.69;;;13.49
29701;BMP280;57917;51.380;-0.176;2022-10-16T02:14:19;100376.97;;;13.31
29701;BMP280;57917;51.380;-0.176;2022-10-16T02:20:06;100396.66;;;13.52
29701;BMP280;57917;51.380;-0.176;2022-10-16T02:25:54;100387.88;;;13.29
29701;BMP280;57917;51.380;-0.176;2022-10-16T02:31:46;100414.00;;;13.14
29701;BMP280;57917;51.380;-0.176;2022-10-16T02:37:35;100419.06;;;13.02
29701;BMP280;57917;51.380;-0.176;2022-10-16T02:43:22;100421.38;;;13.17
29701;BMP280;57917;51.380;-0.176;2022-10-16T02:49:09;100412.16;;;13.01
29701;BMP280;57917;51.380;-0.176;2022-10-16T02:54:56;100412.56;;;12.94
29701;BMP280;57917;51.380;-0.176;2022-10-16T03:00:43;100422.38;;;12.94
29701;BMP280;57917;51.380;-0.176;2022-10-16T03:06:30;100422.00;;;12.87
29701;BMP280;57917;51.380;-0.176;2022-10-16T03:12:17;100424.94;;;12.85
29701;BMP280;57917;51.380;-0.176;2022-10-16T03:18:04;100426.22;;;12.74
29701;BMP280;57917;51.380;-0.176;2022-10-16T03:23:51;100427.09;;;12.69
29701;BMP280;57917;51.380;-0.176;2022-10-16T03:29:38;100440.69;;;12.68
29701;BMP280;57917;51.380;-0.176;2022-10-16T03:35:25;100442.47;;;12.72
29701;BMP280;57917;51.380;-0.176;2022-10-16T03:41:12;100452.84;;;12.69
29701;BMP280;57917;51.380;-0.176;2022-10-16T03:46:59;100458.41;;;12.72
29701;BMP280;57917;51.380;-0.176;2022-10-16T03:52:46;100460.34;;;12.67
29701;BMP280;57917;51.380;-0.176;2022-10-16T03:58:33;100460.53;;;12.70
29701;BMP280;57917;51.380;-0.176;2022-10-16T04:04:19;100479.03;;;12.75
29701;BMP280;57917;51.380;-0.176;2022-10-16T04:10:06;100483.06;;;12.73
29701;BMP280;57917;51.380;-0.176;2022-10-16T04:15:53;100498.00;;;12.69
29701;BMP280;57917;51.380;-0.176;2022-10-16T04:21:40;100515.44;;;12.61
29701;BMP280;57917;51.380;-0.176;2022-10-16T04:27:27;100527.94;;;12.56
29701;BMP280;57917;51.380;-0.176;2022-10-16T04:33:15;100531.16;;;12.58
29701;BMP280;57917;51.380;-0.176;2022-10-16T04:39:02;100542.34;;;12.55
29701;BMP280;57917;51.380;-0.176;2022-10-16T04:44:49;100566.88;;;12.65
29701;BMP280;57917;51.380;-0.176;2022-10-16T04:50:36;100560.78;;;12.46
29701;BMP280;57917;51.380;-0.176;2022-10-16T04:56:26;100569.22;;;12.67
29701;BMP280;57917;51.380;-0.176;2022-10-16T05:02:12;100582.47;;;12.53
29701;BMP280;57917;51.380;-0.176;2022-10-16T05:07:59;100592.84;;;12.50
29701;BMP280;57917;51.380;-0.176;2022-10-16T05:13:46;100591.69;;;12.56
29701;BMP280;57917;51.380;-0.176;2022-10-16T05:19:37;100599.81;;;12.46
29701;BMP280;57917;51.380;-0.176;2022-10-16T05:25:24;100595.38;;;12.41
29701;BMP280;57917;51.380;-0.176;2022-10-16T05:31:11;100616.69;;;12.36
29701;BMP280;57917;51.380;-0.176;2022-10-16T05:36:57;100608.00;;;12.49
29701;BMP280;57917;51.380;-0.176;2022-10-16T05:42:44;100627.81;;;12.38
29701;BMP280;57917;51.380;-0.176;2022-10-16T05:48:32;100631.78;;;12.41
29701;BMP280;57917;51.380;-0.176;2022-10-16T05:54:19;100633.41;;;12.37
29701;BMP280;57917;51.380;-0.176;2022-10-16T06:00:08;100649.19;;;12.28
29701;BMP280;57917;51.380;-0.176;2022-10-16T06:05:58;100654.72;;;12.32
29701;BMP280;57917;51.380;-0.176;2022-10-16T06:11:47;100665.88;;;12.29
29701;BMP280;57917;51.380;-0.176;2022-10-16T06:17:34;100669.19;;;12.21
29701;BMP280;57917;51.380;-0.176;2022-10-16T06:23:21;100676.28;;;12.25
29701;BMP280;57917;51.380;-0.176;2022-10-16T06:29:08;100676.47;;;12.34
29701;BMP280;57917;51.380;-0.176;2022-10-16T06:34:57;100683.09;;;12.31
29701;BMP280;57917;51.380;-0.176;2022-10-16T06:40:44;100681.88;;;12.24
29701;BMP280;57917;51.380;-0.176;2022-10-16T06:46:31;100688.00;;;12.24
29701;BMP280;57917;51.380;-0.176;2022-10-16T06:52:18;100693.72;;;12.31
29701;BMP280;57917;51.380;-0.176;2022-10-16T06:58:04;100703.59;;;12.87
29701;BMP280;57917;51.380;-0.176;2022-10-16T07:03:52;100713.75;;;13.76
29701;BMP280;57917;51.380;-0.176;2022-10-16T07:09:41;100734.06;;;14.62
29701;BMP280;57917;51.380;-0.176;2022-10-16T07:15:30;100738.13;;;15.25
29701;BMP280;57917;51.380;-0.176;2022-10-16T07:21:19;100733.19;;;15.71
29701;BMP280;57917;51.380;-0.176;2022-10-16T07:27:13;100748.09;;;16.28
29701;BMP280;57917;51.380;-0.176;2022-10-16T07:33:02;100756.41;;;16.87
29701;BMP280;57917;51.380;-0.176;2022-10-16T07:38:49;100773.47;;;17.37
29701;BMP280;57917;51.380;-0.176;2022-10-16T07:44:40;100769.44;;;17.60
29701;BMP280;57917;51.380;-0.176;2022-10-16T07:50:27;100766.31;;;17.58
29701;BMP280;57917;51.380;-0.176;2022-10-16T07:56:16;100777.66;;;16.41
29701;BMP280;57917;51.380;-0.176;2022-10-16T08:02:03;100793.16;;;15.43
29701;BMP280;57917;51.380;-0.176;2022-10-16T08:07:52;100811.56;;;14.87
29701;BMP280;57917;51.380;-0.176;2022-10-16T08:13:39;100817.13;;;14.77
29701;BMP280;57917;51.380;-0.176;2022-10-16T08:19:26;100817.31;;;14.67
29701;BMP280;57917;51.380;-0.176;2022-10-16T08:25:14;100838.38;;;14.41
29701;BMP280;57917;51.380;-0.176;2022-10-16T08:31:14;100848.47;;;14.94
29701;BMP280;57917;51.380;-0.176;2022-10-16T08:37:02;100841.63;;;15.01
29701;BMP280;57917;51.380;-0.176;2022-10-16T08:48:59;100864.03;;;15.88
29701;BMP280;57917;51.380;-0.176;2022-10-16T08:54:53;100864.84;;;16.19
29701;BMP280;57917;51.380;-0.176;2022-10-16T09:00:45;100867.97;;;16.21
29701;BMP280;57917;51.380;-0.176;2022-10-16T09:06:54;100866.00;;;16.44
29701;BMP280;57917;51.380;-0.176;2022-10-16T09:25:10;100886.94;;;16.68
29701;BMP280;57917;51.380;-0.176;2022-10-16T09:30:58;100890.31;;;16.90
29701;BMP280;57917;51.380;-0.176;2022-10-16T09:36:46;100898.97;;;17.30
29701;BMP280;57917;51.380;-0.176;2022-10-16T09:42:35;100893.75;;;17.08
29701;BMP280;57917;51.380;-0.176;2022-10-16T09:48:25;100903.31;;;16.83
29701;BMP280;57917;51.380;-0.176;2022-10-16T09:54:19;100910.44;;;17.05
29701;BMP280;57917;51.380;-0.176;2022-10-16T10:00:08;100917.63;;;16.87
29701;BMP280;57917;51.380;-0.176;2022-10-16T10:05:55;100925.84;;;16.91
29701;BMP280;57917;51.380;-0.176;2022-10-16T10:17:49;100918.75;;;16.95
29701;BMP280;57917;51.380;-0.176;2022-10-16T10:23:37;100932.78;;;17.09
29701;BMP280;57917;51.380;-0.176;2022-10-16T10:48:06;100919.94;;;17.91
29701;BMP280;57917;51.380;-0.176;2022-10-16T11:00:23;100911.59;;;18.50
29701;BMP280;57917;51.380;-0.176;2022-10-16T11:06:21;100899.78;;;18.51
29701;BMP280;57917;51.380;-0.176;2022-10-16T11:12:18;100896.28;;;18.80
29701;BMP280;57917;51.380;-0.176;2022-10-16T11:18:13;100893.47;;;18.97
29701;BMP280;57917;51.380;-0.176;2022-10-16T11:24:18;100883.34;;;18.94
29701;BMP280;57917;51.380;-0.176;2022-10-16T11:30:32;100886.38;;;18.72
29701;BMP280;57917;51.380;-0.176;2022-10-16T11:36:33;100890.56;;;18.61
29701;BMP280;57917;51.380;-0.176;2022-10-16T11:42:27;100886.00;;;18.82
29701;BMP280;57917;51.380;-0.176;2022-10-16T11:48:43;100885.22;;;19.02
29701;BMP280;57917;51.380;-0.176;2022-10-16T12:00:25;100887.72;;;18.66
29701;BMP280;57917;51.380;-0.176;2022-10-16T12:12:27;100902.88;;;19.03
29701;BMP280;57917;51.380;-0.176;2022-10-16T12:18:24;100891.13;;;18.75
29701;BMP280;57917;51.380;-0.176;2022-10-16T12:30:22;100886.75;;;18.71
29701;BMP280;57917;51.380;-0.176;2022-10-16T12:36:15;100887.25;;;18.35
29701;BMP280;57917;51.380;-0.176;2022-10-16T12:48:20;100887.66;;;18.25
29701;BMP280;57917;51.380;-0.176;2022-10-16T12:54:22;100889.44;;;18.12
29701;BMP280;57917;51.380;-0.176;2022-10-16T13:06:20;100883.91;;;18.09
29701;BMP280;57917;51.380;-0.176;2022-10-16T13:25:44;100899.78;;;17.85
29701;BMP280;57917;51.380;-0.176;2022-10-16T13:31:41;100902.53;;;18.05
29701;BMP280;57917;51.380;-0.176;2022-10-16T13:37:32;100895.09;;;18.11
29701;BMP280;57917;51.380;-0.176;2022-10-16T13:43:40;100879.78;;;18.20
29701;BMP280;57917;51.380;-0.176;2022-10-16T13:49:29;100883.00;;;18.05
29701;BMP280;57917;51.380;-0.176;2022-10-16T13:55:20;100876.25;;;17.99
29701;BMP280;57917;51.380;-0.176;2022-10-16T14:01:20;100886.50;;;17.97
29701;BMP280;57917;51.380;-0.176;2022-10-16T14:07:33;100874.84;;;17.93
29701;BMP280;57917;51.380;-0.176;2022-10-16T14:13:52;100875.50;;;17.90
29701;BMP280;57917;51.380;-0.176;2022-10-16T14:19:49;100861.78;;;17.91
29701;BMP280;57917;51.380;-0.176;2022-10-16T14:25:44;100864.91;;;17.93
29701;BMP280;57917;51.380;-0.176;2022-10-16T14:31:53;100870.16;;;17.90
29701;BMP280;57917;51.380;-0.176;2022-10-16T14:38:14;100875.16;;;18.00
29701;BMP280;57917;51.380;-0.176;2022-10-16T14:44:19;100871.81;;;18.03
29701;BMP280;57917;51.380;-0.176;2022-10-16T14:50:11;100878.22;;;17.81
29701;BMP280;57917;51.380;-0.176;2022-10-16T14:56:14;100883.63;;;17.56
29701;BMP280;57917;51.380;-0.176;2022-10-16T15:02:29;100898.31;;;17.50
29701;BMP280;57917;51.380;-0.176;2022-10-16T15:08:16;100900.97;;;17.41
29701;BMP280;57917;51.380;-0.176;2022-10-16T15:14:28;100911.38;;;17.34
29701;BMP280;57917;51.380;-0.176;2022-10-16T15:20:56;100909.03;;;17.24
29701;BMP280;57917;51.380;-0.176;2022-10-16T15:26:44;100887.94;;;17.23
29701;BMP280;57917;51.380;-0.176;2022-10-16T15:32:36;100871.88;;;17.14
29701;BMP280;57917;51.380;-0.176;2022-10-16T15:38:56;100859.31;;;17.15
29701;BMP280;57917;51.380;-0.176;2022-10-16T15:44:43;100871.91;;;17.06
29701;BMP280;57917;51.380;-0.176;2022-10-16T15:50:39;100867.47;;;17.18
29701;BMP280;57917;51.380;-0.176;2022-10-16T15:56:27;100872.53;;;17.03
29701;BMP280;57917;51.380;-0.176;2022-10-16T16:02:21;100865.72;;;16.71
29701;BMP280;57917;51.380;-0.176;2022-10-16T16:08:10;100868.88;;;16.65
29701;BMP280;57917;51.380;-0.176;2022-10-16T16:13:57;100857.06;;;16.66
29701;BMP280;57917;51.380;-0.176;2022-10-16T16:19:45;100850.25;;;16.51
29701;BMP280;57917;51.380;-0.176;2022-10-16T16:25:33;100845.72;;;16.52
29701;BMP280;57917;51.380;-0.176;2022-10-16T16:31:27;100817.50;;;16.20
29701;BMP280;57917;51.380;-0.176;2022-10-16T16:37:15;100823.31;;;16.13
29701;BMP280;57917;51.380;-0.176;2022-10-16T16:43:02;100813.31;;;16.27
29701;BMP280;57917;51.380;-0.176;2022-10-16T16:48:50;100830.25;;;16.14
29701;BMP280;57917;51.380;-0.176;2022-10-16T16:54:40;100818.63;;;16.19
29701;BMP280;57917;51.380;-0.176;2022-10-16T17:00:27;100833.78;;;16.01
29701;BMP280;57917;51.380;-0.176;2022-10-16T17:06:19;100825.56;;;16.28
29701;BMP280;57917;51.380;-0.176;2022-10-16T17:12:07;100846.59;;;16.21
29701;BMP280;57917;51.380;-0.176;2022-10-16T17:17:54;100840.19;;;15.92
29701;BMP280;57917;51.380;-0.176;2022-10-16T17:23:45;100837.16;;;15.85
29701;BMP280;57917;51.380;-0.176;2022-10-16T17:29:33;100839.09;;;15.62
29701;BMP280;57917;51.380;-0.176;2022-10-16T17:35:20;100834.44;;;15.46
29701;BMP280;57917;51.380;-0.176;2022-10-16T17:41:18;100830.13;;;15.58
29701;BMP280;57917;51.380;-0.176;2022-10-16T17:47:05;100821.59;;;15.48
29701;BMP280;57917;51.380;-0.176;2022-10-16T17:52:56;100835.22;;;15.46
29701;BMP280;57917;51.380;-0.176;2022-10-16T17:58:49;100846.50;;;15.43
29701;BMP280;57917;51.380;-0.176;2022-10-16T18:04:38;100847.34;;;15.52
29701;BMP280;57917;51.380;-0.176;2022-10-16T18:10:25;100834.44;;;15.46
29701;BMP280;57917;51.380;-0.176;2022-10-16T18:16:13;100839.97;;;15.49
29701;BMP280;57917;51.380;-0.176;2022-10-16T18:22:06;100832.25;;;15.48
29701;BMP280;57917;51.380;-0.176;2022-10-16T18:27:54;100829.16;;;15.54
29701;BMP280;57917;51.380;-0.176;2022-10-16T18:33:44;100836.06;;;15.55
29701;BMP280;57917;51.380;-0.176;2022-10-16T18:39:36;100819.22;;;15.46
29701;BMP280;57917;51.380;-0.176;2022-10-16T18:45:23;100814.91;;;15.37
29701;BMP280;57917;51.380;-0.176;2022-10-16T18:51:18;100798.91;;;15.37
29701;BMP280;57917;51.380;-0.176;2022-10-16T18:57:07;100785.56;;;15.37
29701;BMP280;57917;51.380;-0.176;2022-10-16T19:02:54;100791.06;;;15.32
29701;BMP280;57917;51.380;-0.176;2022-10-16T19:08:43;100769.28;;;15.38
29701;BMP280;57917;51.380;-0.176;2022-10-16T19:14:30;100769.16;;;15.43
29701;BMP280;57917;51.380;-0.176;2022-10-16T19:20:19;100760.25;;;15.56
29701;BMP280;57917;51.380;-0.176;2022-10-16T19:26:16;100768.38;;;15.51
29701;BMP280;57917;51.380;-0.176;2022-10-16T19:32:07;100758.22;;;15.62
29701;BMP280;57917;51.380;-0.176;2022-10-16T19:37:54;100744.47;;;15.68
29701;BMP280;57917;51.380;-0.176;2022-10-16T19:43:42;100768.97;;;15.70
29701;BMP280;57917;51.380;-0.176;2022-10-16T19:49:29;100756.22;;;15.67
29701;BMP280;57917;51.380;-0.176;2022-10-16T19:55:53;100757.50;;;15.70
29701;BMP280;57917;51.380;-0.176;2022-10-16T20:02:18;100725.81;;;15.77
29701;BMP280;57917;51.380;-0.176;2022-10-16T20:08:07;100716.25;;;15.84
29701;BMP280;57917;51.380;-0.176;2022-10-16T20:13:54;100711.56;;;15.90
29701;BMP280;57917;51.380;-0.176;2022-10-16T20:26:37;100710.34;;;16.04
29701;BMP280;57917;51.380;-0.176;2022-10-16T20:32:41;100681.94;;;16.08
29701;BMP280;57917;51.380;-0.176;2022-10-16T20:46:27;100688.81;;;16.09
29701;BMP280;57917;51.380;-0.176;2022-10-16T20:52:50;100685.41;;;16.09
29701;BMP280;57917;51.380;-0.176;2022-10-16T20:59:33;100698.28;;;16.15
29701;BMP280;57917;51.380;-0.176;2022-10-16T21:06:45;100704.22;;;16.12
29701;BMP280;57917;51.380;-0.176;2022-10-16T21:13:26;100698.09;;;16.20
29701;BMP280;57917;51.380;-0.176;2022-10-16T21:19:19;100696.22;;;16.21
29701;BMP280;57917;51.380;-0.176;2022-10-16T21:25:09;100681.47;;;16.23
29701;BMP280;57917;51.380;-0.176;2022-10-16T21:30:56;100685.22;;;16.31
29701;BMP280;57917;51.380;-0.176;2022-10-16T21:37:56;100698.44;;;16.36
29701;BMP280;57917;51.380;-0.176;2022-10-16T21:43:46;100705.69;;;16.44
29701;BMP280;57917;51.380;-0.176;2022-10-16T21:49:33;100698.91;;;16.47
29701;BMP280;57917;51.380;-0.176;2022-10-16T21:55:29;100682.69;;;16.52
29701;BMP280;57917;51.380;-0.176;2022-10-16T22:01:36;100692.44;;;16.56
29701;BMP280;57917;51.380;-0.176;2022-10-16T22:07:33;100677.66;;;16.67
29701;BMP280;57917;51.380;-0.176;2022-10-16T22:13:28;100683.94;;;16.88
29701;BMP280;57917;51.380;-0.176;2022-10-16T22:19:41;100692.56;;;16.94
29701;BMP280;57917;51.380;-0.176;2022-10-16T22:26:00;100676.00;;;17.09
29701;BMP280;57917;51.380;-0.176;2022-10-16T22:31:52;100669.53;;;17.10
29701;BMP280;57917;51.380;-0.176;2022-10-16T22:37:53;100652.53;;;17.14
29701;BMP280;57917;51.380;-0.176;2022-10-16T22:43:56;100670.34;;;17.10
29701;BMP280;57917;51.380;-0.176;2022-10-16T22:49:55;100663.56;;;17.13
29701;BMP280;57917;51.380;-0.176;2022-10-16T22:55:50;100671.69;;;17.25
29701;BMP280;57917;51.380;-0.176;2022-10-16T23:02:07;100669.31;;;17.32
29701;BMP280;57917;51.380;-0.176;2022-10-16T23:08:00;100671.16;;;17.40
29701;BMP280;57917;51.380;-0.176;2022-10-16T23:13:57;100663.03;;;17.57
29701;BMP280;57917;51.380;-0.176;2022-10-16T23:19:52;100674.94;;;17.68
29701;BMP280;57917;51.380;-0.176;2022-10-16T23:40:45;100699.38;;;17.87
29701;BMP280;57917;51.380;-0.176;2022-10-16T23:46:44;100695.75;;;17.91
29701;BMP280;57917;51.380;-0.176;2022-10-16T23:52:38;100676.88;;;17.88
29701;BMP280;57917;51.380;-0.176;2022-10-16T23:58:27;100681.09;;;17.89
